Capitola, CA

2:37 PM PDT on September 18, 2014 (GMT -0700)
Watsonville Municipal | Change Station
CLOSE
Current Station
Airport
Location: Watsonville,
Elevation: 161 ft
Nearby Weather Stations
Active Advisory: Beach Hazard Statement

Elev 161 ft 36.94 °N, 121.79 °W | Updated 44 minutes ago

Overcast
Overcast
74 °F
Feels Like 74 °F
N
12
Wind Variable Wind from WSW

Today
High -- | Low -- °F
--% Chance of Precip.
Yesterday
High -- | Low -- °F
Precip. -- in
6:52 AM 7:10 PM
Waning Crescent, 24% visible
Pressure 29.88 in
Visibility 10.0 miles
Clouds Few 1300 ft
Dew Point 63 °F
Humidity 68%
Rainfall 0.07 in
Snow Depth 0 in , 0 in , 1 in
UV 8 out of 12
Pollen 5.10 out of 12
Air Quality Not available.
Flu Activity Not available.
METAR KWVI 182053Z AUTO 24010KT 10SM FEW013 23/17 A2989 RMK AO2 SLP119 T02330172 58005

More Conditions Fewer Conditions

Pressure 29.88 in
Visibility 10.0 miles
Clouds Few 1300 ft
Dew Point 63 °F
Humidity 68%
Rainfall 0.07 in
Snow Depth 0 in , 0 in , 1 in
UV 8 out of 12
Pollen 5.10 out of 12
Air Quality Not available.
Flu Activity Not available.
METAR KWVI 182053Z AUTO 24010KT 10SM FEW013 23/17 A2989 RMK AO2 SLP119 T02330172 58005

More Conditions Fewer Conditions

10-Day Weather Forecast

Almanac

Astronomy

Sep. 18, 2014 Rise Set
Actual Time 6:52 AM PDT 7:10 PM PDT
Civil Twilight 6:26 AM PDT 7:36 PM PDT
Nautical Twilight 5:56 AM PDT 8:06 PM PDT
Astronomical Twilight 5:25 AM PDT 8:37 PM PDT
Moon 1:54 AM PDT 4:00 PM PDT
Length of Visible Light 13h 10m
Length of Day
12h 18m
Tomorrow will be 2m 21s shorter.
Waning Crescent, 24% of the Moon is Illuminated
Today
Waning Crescent
Sep 24
New
Oct 1
First Quarter
Oct 8
Full
Oct 15
Last Quarter

Today's Extremes

State Highs State Lows

Community

WunderPhotos

Upload Photos

1,754,452 photos uploaded!

WunderBlogs® & News

Nearby

Snow Depth

Station Depth Elevation
Burnside Lake 0 in 8139 ft
Summit Meadow 0 in 9122 ft
CSS Lab 1 in 6900 ft
Adin Mountain 0 in 6200 ft
Leavitt Meadows 0 in 7200 ft

Earthquake Activity

City Distance Mag. Time & Date
The Geysers, California 129 miles 2.5 11:29 PM PDT
2014-09-17
Cobb, California 132 miles 2.7 1:23 PM PDT
2014-09-16
Minimum magnitude displayed is 2.5.

Coastal Water Temperatures

Place Temperature
Monterey, CA 60.1 °F
Redwood City, CA 72.0 °F

Nearby Weather Stations